Doris, Iowa
Current Conditions -  °F | °C
As of 11:35 PM on Monday 26 Jan 2015 (Local Time) from KIIB Reporting Station
Clear Clear  
Wind Chill: 26°   Ceiling: Unl
Heat Index: 34°   Visibility: 10mi
Dew Point: 32°   Wind: 10mph
Humidity: 93%   Direction: 330°NNW
Pressure: 29.93"   Gusts: NA
Location:  42.46°N, 91.7742°W
Report Text: KIIB 270535Z AUTO 33009KT 10SM CLR 01/00 A2993 RMK AO2
Loading
Personal Weather Stations






























Interactive Weather Map New forecast layout! Learn more

10-Day Weather Forecast

Advertisements
Track Severe Weather on mobile